createdAt,value
2018-07-17T00:00:39.061Z,21.17
2018-07-17T00:03:08.395Z,21.13
2018-07-17T00:05:37.541Z,21.08
2018-07-17T00:08:06.519Z,21.06
2018-07-17T00:10:35.941Z,21.03
2018-07-17T00:13:04.652Z,21.00
2018-07-17T00:15:33.672Z,20.98
2018-07-17T00:18:02.455Z,20.96
2018-07-17T00:20:31.530Z,20.94
2018-07-17T00:23:00.272Z,20.91
2018-07-17T00:25:29.070Z,20.84
2018-07-17T00:27:58.077Z,20.82
2018-07-17T00:30:26.821Z,20.77
2018-07-17T00:32:55.611Z,20.75
2018-07-17T00:35:24.689Z,20.71
2018-07-17T00:37:54.103Z,20.68
2018-07-17T00:40:22.893Z,20.67
2018-07-17T00:42:51.861Z,20.65
2018-07-17T00:45:21.171Z,20.63
2018-07-17T00:47:50.291Z,20.55
2018-07-17T00:50:19.093Z,20.51
2018-07-17T00:52:48.193Z,20.44
2018-07-17T00:55:17.247Z,20.39
2018-07-17T00:57:46.878Z,20.35
2018-07-17T01:00:15.617Z,20.32
2018-07-17T01:02:49.642Z,20.28
2018-07-17T01:05:23.862Z,20.27
2018-07-17T01:07:57.678Z,20.24
2018-07-17T01:10:32.040Z,20.23
2018-07-17T01:13:00.059Z,20.19
2018-07-17T01:15:33.255Z,20.17
2018-07-17T01:18:02.355Z,20.15
2018-07-17T01:20:31.133Z,20.10
2018-07-17T01:23:00.506Z,20.06
2018-07-17T01:25:29.259Z,20.02
2018-07-17T01:27:58.263Z,19.98
2018-07-17T01:30:27.362Z,19.96
2018-07-17T01:32:56.612Z,19.90
2018-07-17T01:35:25.619Z,19.83
2018-07-17T01:37:54.676Z,19.77
2018-07-17T01:40:23.679Z,19.70
2018-07-17T01:42:52.770Z,19.66
2018-07-17T01:45:21.545Z,19.60
2018-07-17T01:47:50.644Z,19.54
2018-07-17T01:50:19.731Z,19.48
2018-07-17T01:52:51.013Z,19.44
2018-07-17T01:55:20.360Z,19.39
2018-07-17T01:57:49.081Z,19.33
2018-07-17T02:00:17.819Z,19.28
2018-07-17T02:02:46.561Z,19.21
2018-07-17T02:05:15.595Z,19.18
2018-07-17T02:07:44.339Z,19.17
2018-07-17T02:10:13.422Z,19.14
2018-07-17T02:12:42.466Z,19.10
2018-07-17T02:15:11.555Z,19.07
2018-07-17T02:17:40.978Z,19.04
2018-07-17T02:20:10.007Z,19.01
2018-07-17T02:22:39.036Z,18.97
2018-07-17T02:25:08.063Z,18.94
2018-07-17T02:27:37.046Z,18.90
2018-07-17T02:30:06.538Z,18.82
2018-07-17T02:32:35.528Z,18.75
2018-07-17T02:35:04.882Z,18.66
2018-07-17T02:37:34.213Z,18.59
2018-07-17T02:40:02.940Z,18.55
2018-07-17T02:42:31.698Z,18.53
2018-07-17T02:45:00.429Z,18.53
2018-07-17T02:47:29.211Z,18.52
2018-07-17T02:49:58.593Z,18.42
2018-07-17T02:52:27.362Z,18.28
2018-07-17T02:54:56.498Z,18.25
2018-07-17T02:57:25.230Z,18.17
2018-07-17T02:59:54.011Z,18.09
2018-07-17T03:02:23.050Z,18.00
2018-07-17T03:04:51.765Z,17.97
2018-07-17T03:07:21.065Z,17.92
2018-07-17T03:09:50.451Z,17.89
2018-07-17T03:12:19.559Z,17.88
2018-07-17T03:14:48.887Z,17.88
2018-07-17T03:17:17.908Z,17.87
2018-07-17T03:19:47.041Z,17.87
2018-07-17T03:22:16.631Z,17.82
2018-07-17T03:24:45.433Z,17.74
2018-07-17T03:27:14.143Z,17.71
2018-07-17T03:29:43.391Z,17.68
2018-07-17T03:32:12.228Z,17.68
2018-07-17T03:34:41.762Z,17.72
2018-07-17T03:37:10.456Z,17.70
2018-07-17T03:39:39.935Z,17.68
2018-07-17T03:42:08.665Z,17.66
2018-07-17T03:44:37.645Z,17.61
2018-07-17T03:47:06.663Z,17.59
2018-07-17T03:49:35.438Z,17.56
2018-07-17T03:52:04.252Z,17.52
2018-07-17T03:54:32.971Z,17.47
2018-07-17T03:57:01.953Z,17.46
2018-07-17T03:59:31.349Z,17.46
2018-07-17T04:02:00.096Z,17.47
2018-07-17T04:04:29.130Z,17.47
2018-07-17T04:06:57.950Z,17.49
2018-07-17T04:09:27.290Z,17.50
2018-07-17T04:11:56.034Z,17.52
2018-07-17T04:14:25.110Z,17.53
2018-07-17T04:16:55.384Z,17.53
2018-07-17T04:19:26.064Z,17.55
2018-07-17T04:21:54.797Z,17.56
2018-07-17T04:24:24.649Z,17.58
2018-07-17T04:26:54.149Z,17.59
2018-07-17T04:29:22.977Z,17.57
2018-07-17T04:31:52.386Z,17.58
2018-07-17T04:34:21.426Z,17.58
2018-07-17T04:36:50.421Z,17.58
2018-07-17T04:39:19.715Z,17.60
2018-07-17T04:41:50.895Z,17.62
2018-07-17T04:44:19.866Z,17.64
2018-07-17T04:46:48.539Z,17.66
2018-07-17T04:49:17.629Z,17.71
2018-07-17T04:51:46.384Z,17.75
2018-07-17T04:54:16.664Z,17.80
2018-07-17T04:56:45.738Z,17.81
2018-07-17T04:59:14.467Z,17.82
2018-07-17T05:01:43.309Z,17.86
2018-07-17T05:04:12.571Z,17.94
2018-07-17T05:06:42.151Z,17.99
2018-07-17T05:09:11.987Z,18.09
2018-07-17T05:11:41.055Z,18.21
2018-07-17T05:14:09.805Z,18.31
2018-07-17T05:16:38.529Z,18.40
2018-07-17T05:19:07.984Z,18.52
2018-07-17T05:21:36.742Z,18.55
2018-07-17T05:24:05.481Z,18.58
2018-07-17T05:26:34.222Z,18.59
2018-07-17T05:29:03.094Z,18.62
2018-07-17T05:31:31.758Z,18.69
2018-07-17T05:34:00.851Z,18.76
2018-07-17T05:36:29.563Z,18.85
2018-07-17T05:38:58.766Z,18.92
2018-07-17T05:41:27.525Z,19.03
2018-07-17T05:43:56.655Z,19.06
2018-07-17T05:46:25.844Z,19.13
2018-07-17T05:48:54.959Z,19.18
2018-07-17T05:51:23.961Z,19.29
2018-07-17T05:53:53.359Z,19.41
2018-07-17T05:56:22.603Z,19.56
2018-07-17T05:58:52.072Z,19.68
2018-07-17T06:01:21.210Z,19.78
2018-07-17T06:03:49.987Z,19.91
2018-07-17T06:06:18.726Z,20.02
2018-07-17T06:08:47.505Z,20.15
2018-07-17T06:11:16.927Z,20.32
2018-07-17T06:13:45.685Z,20.50
2018-07-17T06:16:14.446Z,20.53
2018-07-17T06:18:43.335Z,20.59
2018-07-17T06:21:12.539Z,20.68
2018-07-17T06:23:41.367Z,20.78
2018-07-17T06:26:10.174Z,20.92
2018-07-17T06:28:38.992Z,21.07
2018-07-17T06:31:08.022Z,21.18
2018-07-17T06:33:36.759Z,21.32
2018-07-17T06:36:05.575Z,21.44
2018-07-17T06:38:34.409Z,21.60
2018-07-17T06:41:03.471Z,21.69
2018-07-17T06:43:32.213Z,21.84
2018-07-17T06:46:01.195Z,22.09
2018-07-17T06:48:30.364Z,22.26
2018-07-17T06:50:59.607Z,22.40
2018-07-17T06:53:29.164Z,22.60
2018-07-17T06:55:58.308Z,22.71
2018-07-17T06:58:27.155Z,22.79
2018-07-17T07:00:55.897Z,22.91
2018-07-17T07:03:24.851Z,23.00
2018-07-17T07:05:53.956Z,23.16
2018-07-17T07:08:22.966Z,23.33
2018-07-17T07:10:52.036Z,23.47
2018-07-17T07:13:20.794Z,23.65
2018-07-17T07:15:49.872Z,23.90
2018-07-17T07:18:19.051Z,24.16
2018-07-17T07:20:48.276Z,24.35
2018-07-17T07:23:17.690Z,24.58
2018-07-17T07:25:46.744Z,24.73
2018-07-17T07:28:15.940Z,24.82
2018-07-17T07:30:44.723Z,24.95
2018-07-17T07:33:14.013Z,25.14
2018-07-17T07:35:43.018Z,25.34
2018-07-17T07:38:12.437Z,25.54
2018-07-17T07:40:41.570Z,25.60
2018-07-17T07:43:10.415Z,25.74
2018-07-17T07:45:39.391Z,25.91
2018-07-17T07:48:08.407Z,26.04
2018-07-17T07:50:37.298Z,26.19
2018-07-17T07:53:06.335Z,26.31
2018-07-17T07:55:35.130Z,26.51
2018-07-17T07:58:03.883Z,26.71
2018-07-17T08:00:32.610Z,26.86
2018-07-17T08:03:01.377Z,27.03
2018-07-17T08:05:30.169Z,27.23
2018-07-17T08:07:59.226Z,27.32
2018-07-17T08:10:28.192Z,27.47
2018-07-17T08:12:56.927Z,27.51
2018-07-17T08:15:25.767Z,27.55
2018-07-17T08:17:55.098Z,27.69
2018-07-17T08:20:23.850Z,27.83
2018-07-17T08:22:52.932Z,27.94
2018-07-17T08:25:21.690Z,28.06
2018-07-17T08:27:50.936Z,28.10
2018-07-17T08:30:19.642Z,28.09
2018-07-17T08:32:49.503Z,28.12
2018-07-17T08:35:18.475Z,28.13
2018-07-17T08:37:47.673Z,28.16
2018-07-17T08:40:16.545Z,28.18
2018-07-17T08:42:45.339Z,28.19
2018-07-17T08:45:14.397Z,28.18
2018-07-17T08:47:43.611Z,28.17
2018-07-17T08:50:12.925Z,28.22
2018-07-17T08:52:42.339Z,28.38
2018-07-17T08:55:11.394Z,28.55
2018-07-17T08:57:40.367Z,28.69
2018-07-17T09:00:09.661Z,28.79
2018-07-17T09:02:38.409Z,28.88
2018-07-17T09:05:07.250Z,28.92
2018-07-17T09:07:36.307Z,29.09
2018-07-17T09:10:05.136Z,29.15
2018-07-17T09:12:34.368Z,29.19
2018-07-17T09:15:03.124Z,29.23
2018-07-17T09:17:31.847Z,29.21
2018-07-17T09:20:00.657Z,29.39
2018-07-17T09:22:30.316Z,29.64
2018-07-17T09:24:59.011Z,29.85
2018-07-17T09:27:28.052Z,30.01
2018-07-17T09:29:57.075Z,30.27
2018-07-17T09:32:26.379Z,30.41
2018-07-17T09:34:55.799Z,30.57
2018-07-17T09:37:24.849Z,30.75
2018-07-17T09:39:53.877Z,30.88
2018-07-17T09:42:22.838Z,31.03
2018-07-17T09:44:52.064Z,31.18
2018-07-17T09:47:21.428Z,31.36
2018-07-17T09:49:50.551Z,31.31
2018-07-17T09:52:19.557Z,31.26
2018-07-17T09:54:49.186Z,31.35
2018-07-17T09:57:18.385Z,31.51
2018-07-17T09:59:47.823Z,31.74
2018-07-17T10:02:21.804Z,31.84
2018-07-17T10:04:50.892Z,31.93
2018-07-17T10:07:19.690Z,32.02
2018-07-17T10:09:49.415Z,32.17
2018-07-17T10:12:18.487Z,32.20
2018-07-17T10:14:47.786Z,32.23
2018-07-17T10:17:16.785Z,32.28
2018-07-17T10:19:45.571Z,32.44
2018-07-17T10:22:14.305Z,32.57
2018-07-17T10:24:43.563Z,32.73
2018-07-17T10:27:12.616Z,32.83
2018-07-17T10:29:41.703Z,33.06
2018-07-17T10:32:10.674Z,33.25
2018-07-17T10:34:39.559Z,33.49
2018-07-17T10:37:08.645Z,33.52
2018-07-17T10:39:37.726Z,33.37
2018-07-17T10:42:06.810Z,33.34
2018-07-17T10:44:35.545Z,33.53
2018-07-17T10:47:04.268Z,33.76
2018-07-17T10:49:33.065Z,33.83
2018-07-17T10:52:02.492Z,34.01
2018-07-17T10:54:31.260Z,33.94
2018-07-17T10:57:00.218Z,33.79
2018-07-17T10:59:29.163Z,33.78
2018-07-17T11:01:58.598Z,33.75
2018-07-17T11:04:28.067Z,33.75
2018-07-17T11:06:57.909Z,33.79
2018-07-17T11:09:27.374Z,33.68
2018-07-17T11:11:56.487Z,33.84
2018-07-17T11:14:25.523Z,34.00
2018-07-17T11:16:54.558Z,34.18
2018-07-17T11:19:24.196Z,34.18
2018-07-17T11:21:53.312Z,34.29
2018-07-17T11:24:22.038Z,34.20
2018-07-17T11:26:50.781Z,33.98
2018-07-17T11:29:19.827Z,34.06
2018-07-17T11:31:48.912Z,33.93
2018-07-17T11:34:18.194Z,33.67
2018-07-17T11:36:46.936Z,33.62
2018-07-17T11:39:15.726Z,33.71
2018-07-17T11:41:45.213Z,33.72
2018-07-17T11:44:13.997Z,33.66
2018-07-17T11:46:42.739Z,33.50
2018-07-17T11:49:11.474Z,33.60
2018-07-17T11:51:40.399Z,34.08
2018-07-17T11:54:10.188Z,34.31
2018-07-17T11:56:39.410Z,34.57
2018-07-17T11:59:08.228Z,34.71
2018-07-17T12:01:37.594Z,34.67
2018-07-17T12:04:07.322Z,34.72
2018-07-17T12:06:36.175Z,34.65
2018-07-17T12:09:07.143Z,34.90
2018-07-17T12:11:36.238Z,34.78
2018-07-17T12:14:05.021Z,34.93
2018-07-17T12:16:34.325Z,35.03
2018-07-17T12:19:03.947Z,35.21
2018-07-17T12:21:32.946Z,35.45
2018-07-17T12:24:02.224Z,35.59
2018-07-17T12:26:31.117Z,35.83
2018-07-17T12:29:00.283Z,36.04
2018-07-17T12:31:30.584Z,36.11
2018-07-17T12:33:59.789Z,35.95
2018-07-17T12:36:29.428Z,35.86
2018-07-17T12:38:58.204Z,35.98
2018-07-17T12:41:27.137Z,35.96
2018-07-17T12:43:55.991Z,35.75
2018-07-17T12:46:24.796Z,35.62
2018-07-17T12:48:54.191Z,35.61
2018-07-17T12:51:23.047Z,35.32
2018-07-17T12:53:51.832Z,35.39
2018-07-17T12:56:20.659Z,35.42
2018-07-17T12:58:50.382Z,35.20
2018-07-17T13:01:19.478Z,34.82
2018-07-17T13:03:48.640Z,34.10
2018-07-17T13:06:17.671Z,33.85
2018-07-17T13:08:46.480Z,33.59
2018-07-17T13:11:15.275Z,33.77
2018-07-17T13:13:44.061Z,33.99
2018-07-17T13:16:13.270Z,34.28
2018-07-17T13:18:42.286Z,34.13
2018-07-17T13:21:11.385Z,34.26
2018-07-17T13:23:40.296Z,34.52
2018-07-17T13:26:09.062Z,34.83
2018-07-17T13:28:38.285Z,34.83
2018-07-17T13:31:07.681Z,34.61
2018-07-17T13:33:36.445Z,34.76
2018-07-17T13:36:05.392Z,34.52
2018-07-17T13:38:34.531Z,34.54
2018-07-17T13:41:03.704Z,33.95
2018-07-17T13:43:32.467Z,33.80
2018-07-17T13:46:01.846Z,33.92
2018-07-17T13:48:31.528Z,33.93
2018-07-17T13:51:00.311Z,34.04
2018-07-17T13:53:29.249Z,34.24
2018-07-17T13:55:58.017Z,34.43
2018-07-17T13:58:27.328Z,34.26
2018-07-17T14:00:56.632Z,34.17
2018-07-17T14:03:25.388Z,34.24
2018-07-17T14:05:54.408Z,34.24
2018-07-17T14:08:23.759Z,34.27
2018-07-17T14:10:53.326Z,34.33
2018-07-17T14:13:22.410Z,34.22
2018-07-17T14:15:51.739Z,34.12
2018-07-17T14:18:21.021Z,34.12
2018-07-17T14:20:49.815Z,34.09
2018-07-17T14:23:18.779Z,33.98
2018-07-17T14:25:47.571Z,33.93
2018-07-17T14:28:16.699Z,33.80
2018-07-17T14:30:45.746Z,33.54
2018-07-17T14:33:14.836Z,33.47
2018-07-17T14:35:43.974Z,33.39
2018-07-17T14:38:13.329Z,33.38
2018-07-17T14:40:42.100Z,33.51
2018-07-17T14:43:11.144Z,33.27
2018-07-17T14:45:40.560Z,32.94
2018-07-17T14:48:09.357Z,32.93
2018-07-17T14:50:38.681Z,32.95
2018-07-17T14:53:07.906Z,32.94
2018-07-17T14:55:36.675Z,32.80
2018-07-17T14:58:05.723Z,32.73
2018-07-17T15:00:34.442Z,32.75
2018-07-17T15:03:03.477Z,32.70
2018-07-17T15:05:32.544Z,32.82
2018-07-17T15:08:01.581Z,32.81
2018-07-17T15:10:31.007Z,32.76
2018-07-17T15:13:00.041Z,32.84
2018-07-17T15:15:29.131Z,32.85
2018-07-17T15:17:57.985Z,32.76
2018-07-17T15:20:26.707Z,32.78
2018-07-17T15:22:55.437Z,32.66
2018-07-17T15:25:24.565Z,32.57
2018-07-17T15:27:53.783Z,32.46
2018-07-17T15:30:22.874Z,32.51
2018-07-17T15:32:53.041Z,32.52
2018-07-17T15:35:22.573Z,32.64
2018-07-17T15:37:51.330Z,32.29
2018-07-17T15:40:20.119Z,32.35
2018-07-17T15:42:49.199Z,32.20
2018-07-17T15:45:18.752Z,32.10
2018-07-17T15:47:47.511Z,31.90
2018-07-17T15:50:16.608Z,32.02
2018-07-17T15:52:45.398Z,31.96
2018-07-17T15:55:14.205Z,31.78
2018-07-17T15:57:42.936Z,31.76
2018-07-17T16:00:11.794Z,31.72
2018-07-17T16:02:41.118Z,31.84
2018-07-17T16:05:09.860Z,31.74
2018-07-17T16:07:38.618Z,31.58
2018-07-17T16:10:07.467Z,31.36
2018-07-17T16:12:36.847Z,31.23
2018-07-17T16:15:06.491Z,31.09
2018-07-17T16:17:35.854Z,30.92
2018-07-17T16:20:05.207Z,30.97
2018-07-17T16:22:34.336Z,30.97
2018-07-17T16:25:03.077Z,30.92
2018-07-17T16:27:31.790Z,30.77
2018-07-17T16:30:00.882Z,30.70
2018-07-17T16:32:29.720Z,30.43
2018-07-17T16:34:58.518Z,30.37
2018-07-17T16:37:27.250Z,30.38
2018-07-17T16:39:56.007Z,30.13
2018-07-17T16:42:25.636Z,30.16
2018-07-17T16:44:55.066Z,30.00
2018-07-17T16:47:24.276Z,29.89
2018-07-17T16:49:53.714Z,29.83
2018-07-17T16:52:22.842Z,29.88
2018-07-17T16:54:51.848Z,29.87
2018-07-17T16:57:21.100Z,29.84
2018-07-17T16:59:49.877Z,29.76
2018-07-17T17:02:18.625Z,29.68
2018-07-17T17:04:47.609Z,29.47
2018-07-17T17:07:16.755Z,29.33
2018-07-17T17:09:46.403Z,29.37
2018-07-17T17:12:15.491Z,29.38
2018-07-17T17:14:44.328Z,29.15
2018-07-17T17:17:13.294Z,28.88
2018-07-17T17:19:42.360Z,28.72
2018-07-17T17:22:11.418Z,28.65
2018-07-17T17:24:41.166Z,28.64
2018-07-17T17:27:10.707Z,28.45
2018-07-17T17:29:40.077Z,28.17
2018-07-17T17:32:08.802Z,28.07
2018-07-17T17:34:38.189Z,28.01
2018-07-17T17:37:07.146Z,27.77
2018-07-17T17:39:35.945Z,27.63
2018-07-17T17:42:04.686Z,27.45
2018-07-17T17:44:33.399Z,27.38
2018-07-17T17:47:02.524Z,27.38
2018-07-17T17:49:31.945Z,27.37
2018-07-17T17:52:00.669Z,27.29
2018-07-17T17:54:30.046Z,27.14
2018-07-17T17:56:58.763Z,27.08
2018-07-17T17:59:27.854Z,27.05
2018-07-17T18:01:56.896Z,27.03
2018-07-17T18:04:25.652Z,27.04
2018-07-17T18:06:54.674Z,27.06
2018-07-17T18:09:23.535Z,26.93
2018-07-17T18:11:52.671Z,26.84
2018-07-17T18:14:21.941Z,26.71
2018-07-17T18:16:50.719Z,26.67
2018-07-17T18:19:20.128Z,26.44
2018-07-17T18:21:48.964Z,26.43
2018-07-17T18:24:18.000Z,26.40
2018-07-17T18:26:47.371Z,26.24
2018-07-17T18:29:16.143Z,26.11
2018-07-17T18:31:45.605Z,25.94
2018-07-17T18:34:14.431Z,25.80
2018-07-17T18:36:43.174Z,25.76
2018-07-17T18:39:12.307Z,25.58
2018-07-17T18:41:41.193Z,25.46
2018-07-17T18:44:10.654Z,25.40
2018-07-17T18:46:39.445Z,25.38
2018-07-17T18:49:08.486Z,25.30
2018-07-17T18:51:37.830Z,25.19
2018-07-17T18:54:06.612Z,25.13
2018-07-17T18:56:35.728Z,25.06
2018-07-17T18:59:04.801Z,24.94
2018-07-17T19:01:33.555Z,24.85
2018-07-17T19:04:02.962Z,24.74
2018-07-17T19:06:31.980Z,24.66
2018-07-17T19:09:00.712Z,24.60
2018-07-17T19:11:29.954Z,24.52
2018-07-17T19:13:59.238Z,24.44
2018-07-17T19:16:27.947Z,24.41
2018-07-17T19:18:56.679Z,24.32
2018-07-17T19:21:25.800Z,24.25
2018-07-17T19:23:54.611Z,24.16
2018-07-17T19:26:23.953Z,24.06
2018-07-17T19:28:53.164Z,23.94
2018-07-17T19:31:24.246Z,23.88
2018-07-17T19:33:56.171Z,23.83
2018-07-17T19:36:25.354Z,23.80
2018-07-17T19:38:54.429Z,23.74
2018-07-17T19:41:23.163Z,23.62
2018-07-17T19:43:52.335Z,23.50
2018-07-17T19:46:21.043Z,23.35
2018-07-17T19:48:49.747Z,23.26
2018-07-17T19:51:18.810Z,23.16
2018-07-17T19:53:47.551Z,23.07
2018-07-17T19:56:16.715Z,22.96
2018-07-17T19:58:45.826Z,22.87
2018-07-17T20:01:15.719Z,22.83
2018-07-17T20:03:44.461Z,22.76
2018-07-17T20:06:13.277Z,22.72
2018-07-17T20:08:42.357Z,22.67
2018-07-17T20:11:11.096Z,22.61
2018-07-17T20:13:40.516Z,22.52
2018-07-17T20:16:09.255Z,22.39
2018-07-17T20:18:37.991Z,22.34
2018-07-17T20:21:07.051Z,22.27
2018-07-17T20:23:36.345Z,22.18
2018-07-17T20:26:05.972Z,22.06
2018-07-17T20:28:35.019Z,21.97
2018-07-17T20:31:03.774Z,21.87
2018-07-17T20:33:32.496Z,21.77
2018-07-17T20:36:01.450Z,21.72
2018-07-17T20:38:30.560Z,21.68
2018-07-17T20:40:59.509Z,21.70
2018-07-17T20:43:28.547Z,21.69
2018-07-17T20:45:57.614Z,21.65
2018-07-17T20:48:27.578Z,21.60
2018-07-17T20:50:56.818Z,21.56
2018-07-17T20:53:25.780Z,21.49
2018-07-17T20:55:54.645Z,21.40
2018-07-17T20:58:23.727Z,21.37
2018-07-17T21:00:52.870Z,21.29
2018-07-17T21:03:21.948Z,21.28
2018-07-17T21:05:50.978Z,21.25
2018-07-17T21:08:20.402Z,21.22
2018-07-17T21:10:49.654Z,21.17
2018-07-17T21:13:18.801Z,21.13
2018-07-17T21:15:47.835Z,21.09
2018-07-17T21:18:17.271Z,21.04
2018-07-17T21:20:46.201Z,21.01
2018-07-17T21:23:15.212Z,20.96
2018-07-17T21:25:44.241Z,20.91
2018-07-17T21:28:13.917Z,20.87
2018-07-17T21:30:43.032Z,20.78
2018-07-17T21:33:11.797Z,20.73
2018-07-17T21:35:41.420Z,20.68
2018-07-17T21:38:10.770Z,20.64
2018-07-17T21:40:40.367Z,20.58
2018-07-17T21:43:09.435Z,20.50
2018-07-17T21:45:39.215Z,20.44
2018-07-17T21:48:08.456Z,20.39
2018-07-17T21:50:37.779Z,20.33
2018-07-17T21:53:06.763Z,20.25
2018-07-17T21:55:36.239Z,20.20
2018-07-17T21:58:05.205Z,20.15
2018-07-17T22:00:34.631Z,20.10
2018-07-17T22:03:08.389Z,20.05
2018-07-17T22:05:37.187Z,19.99
2018-07-17T22:08:06.050Z,19.90
2018-07-17T22:10:34.831Z,19.84
2018-07-17T22:13:03.555Z,19.80
2018-07-17T22:15:32.774Z,19.74
2018-07-17T22:18:01.681Z,19.67
2018-07-17T22:20:31.069Z,19.66
2018-07-17T22:22:59.834Z,19.60
2018-07-17T22:25:28.545Z,19.58
2018-07-17T22:27:58.205Z,19.55
2018-07-17T22:30:27.527Z,19.49
2018-07-17T22:32:58.112Z,19.44
2018-07-17T22:35:28.003Z,19.39
2018-07-17T22:38:02.985Z,19.32
2018-07-17T22:40:36.801Z,19.26
2018-07-17T22:43:06.946Z,19.20
2018-07-17T22:45:36.303Z,19.17
2018-07-17T22:48:05.827Z,19.12
2018-07-17T22:50:35.617Z,19.04
2018-07-17T22:53:04.354Z,18.99
2018-07-17T22:55:33.044Z,18.92
2018-07-17T22:58:01.761Z,18.85
2018-07-17T23:00:30.455Z,18.80
2018-07-17T23:02:59.797Z,18.77
2018-07-17T23:05:29.032Z,18.70
2018-07-17T23:07:58.326Z,18.64
2018-07-17T23:10:27.092Z,18.57
2018-07-17T23:12:56.055Z,18.53
2018-07-17T23:15:24.821Z,18.49
2018-07-17T23:17:53.582Z,18.45
2018-07-17T23:20:22.708Z,18.40
2018-07-17T23:22:59.089Z,18.36
2018-07-17T23:25:29.399Z,18.28
2018-07-17T23:27:59.142Z,18.23
2018-07-17T23:30:28.090Z,18.17
2018-07-17T23:32:57.298Z,18.10
2018-07-17T23:35:26.853Z,18.06
2018-07-17T23:37:56.494Z,18.02
2018-07-17T23:40:25.535Z,18.00
2018-07-17T23:42:55.586Z,17.96
2018-07-17T23:45:24.471Z,17.93
2018-07-17T23:47:53.239Z,17.91
2018-07-17T23:50:22.032Z,17.87
2018-07-17T23:52:51.038Z,17.84
2018-07-17T23:55:19.777Z,17.82
2018-07-17T23:57:49.170Z,17.80
